Time;durP1;ratioP1;P1;durP2;ratioP2;P2;SDS_P1;SDS_P2;PMS_P1;PMS_P2;Temp;Humidity;BMP_temperature;BMP_pressure;BME280_temperature;BME280_humidity;BME280_pressure;Samples;Min_cycle;Max_cycle;Signal;HPM_P1;HPM_P2
2022/12/24 00:01:23;;;;;;;42.70;31.55;;;22.10;54.00;;;;;;5036483;28;20033;-66
2022/12/24 00:03:48;;;;;;;43.17;30.55;;;22.10;54.00;;;;;;5049210;28;20021;-65
2022/12/24 00:06:20;;;;;;;41.47;29.75;;;22.00;54.00;;;;;;5048123;28;20025;-65
2022/12/24 00:08:46;;;;;;;40.95;29.00;;;22.10;54.20;;;;;;5044406;28;20389;-65
2022/12/24 00:11:12;;;;;;;38.45;28.13;;;22.00;54.10;;;;;;5039738;28;20025;-66
2022/12/24 00:13:38;;;;;;;38.58;27.30;;;22.00;54.30;;;;;;5040316;28;20159;-65
2022/12/24 00:16:04;;;;;;;37.95;27.15;;;22.00;54.30;;;;;;5042760;28;20162;-65
2022/12/24 00:18:30;;;;;;;38.78;27.17;;;22.00;54.30;;;;;;5050751;28;20083;-65
2022/12/24 00:20:56;;;;;;;39.22;27.73;;;22.00;54.30;;;;;;5047083;28;20538;-66
2022/12/24 00:23:22;;;;;;;39.15;26.77;;;22.00;54.30;;;;;;5049327;28;20033;-66
2022/12/24 00:25:47;;;;;;;37.35;25.80;;;22.00;54.30;;;;;;5045720;28;20159;-65
2022/12/24 00:28:13;;;;;;;37.85;26.48;;;22.00;54.30;;;;;;5043491;28;20018;-65
2022/12/24 00:30:40;;;;;;;34.20;24.75;;;22.00;54.30;;;;;;5051055;28;20036;-65
2022/12/24 00:33:07;;;;;;;36.00;25.83;;;22.00;54.30;;;;;;5053271;28;20082;-66
2022/12/24 00:35:34;;;;;;;33.22;24.05;;;22.00;54.30;;;;;;5055791;28;20037;-65
2022/12/24 00:37:59;;;;;;;31.60;23.73;;;22.00;54.30;;;;;;5045966;28;20034;-65
2022/12/24 00:40:25;;;;;;;35.63;24.10;;;22.00;54.30;;;;;;5052056;28;20033;-65
2022/12/24 00:42:50;;;;;;;34.03;24.08;;;22.00;54.30;;;;;;5051477;28;20025;-65
2022/12/24 00:45:16;;;;;;;32.47;23.83;;;22.00;54.20;;;;;;5053997;28;20025;-67
2022/12/24 00:47:42;;;;;;;33.22;24.13;;;21.90;54.20;;;;;;5060835;28;20415;-67
2022/12/24 00:50:08;;;;;;;33.83;23.55;;;22.00;54.20;;;;;;5059670;28;20029;-69
2022/12/24 00:52:34;;;;;;;34.40;24.10;;;21.90;54.20;;;;;;5050412;28;20064;-67
2022/12/24 00:55:00;;;;;;;30.75;22.65;;;21.90;54.20;;;;;;5045525;28;20025;-67
2022/12/24 00:57:25;;;;;;;31.92;23.80;;;21.90;54.20;;;;;;5049008;28;20126;-67
2022/12/24 00:59:51;;;;;;;33.83;24.45;;;21.90;54.10;;;;;;5054392;28;20077;-67
2022/12/24 01:02:16;;;;;;;32.92;24.05;;;21.90;54.10;;;;;;5055375;28;20056;-67
2022/12/24 01:07:26;;;;;;;33.42;22.80;;;21.90;54.10;;;;;;5050026;28;20077;-67
2022/12/24 01:09:52;;;;;;;32.58;22.52;;;21.90;54.10;;;;;;5056304;28;20025;-64
2022/12/24 01:12:18;;;;;;;32.10;23.45;;;21.90;54.10;;;;;;5055177;28;20056;-65
2022/12/24 01:14:43;;;;;;;31.60;22.42;;;21.90;54.10;;;;;;5055335;28;20590;-65
2022/12/24 01:17:09;;;;;;;33.70;23.02;;;21.90;54.10;;;;;;5052854;28;20032;-65
2022/12/24 01:19:34;;;;;;;32.22;22.52;;;21.80;54.00;;;;;;5056916;28;20035;-65
2022/12/24 01:22:00;;;;;;;28.30;20.83;;;21.80;54.00;;;;;;5053195;28;20387;-66
2022/12/24 01:24:26;;;;;;;27.77;21.52;;;21.80;54.00;;;;;;5050914;28;20030;-66
2022/12/24 01:26:51;;;;;;;30.52;21.77;;;21.80;54.00;;;;;;5056390;28;20025;-65
2022/12/24 01:29:17;;;;;;;30.50;21.85;;;21.80;54.00;;;;;;5052640;28;20020;-66
2022/12/24 01:31:42;;;;;;;30.98;22.23;;;21.80;54.10;;;;;;5039160;28;20366;-65
2022/12/24 01:34:08;;;;;;;29.20;21.60;;;21.80;54.00;;;;;;5059187;28;20027;-66
2022/12/24 01:36:35;;;;;;;30.83;21.38;;;21.80;54.10;;;;;;5052769;28;20036;-65
2022/12/24 01:39:01;;;;;;;29.10;20.58;;;21.80;54.10;;;;;;5045063;28;20041;-65
2022/12/24 01:44:26;;;;;;;31.42;22.08;;;21.70;54.10;;;;;;5056142;28;20496;-64
2022/12/24 01:46:56;;;;;;;29.45;21.80;;;21.70;54.00;;;;;;5055977;28;20048;-65
2022/12/24 01:49:22;;;;;;;28.70;20.67;;;21.70;54.00;;;;;;5055856;28;20385;-66
2022/12/24 01:51:57;;;;;;;28.73;21.52;;;21.70;54.00;;;;;;5054574;28;20028;-68
2022/12/24 01:54:31;;;;;;;28.08;20.75;;;21.70;54.10;;;;;;5054137;28;20032;-67
2022/12/24 01:57:08;;;;;;;27.95;19.42;;;21.70;54.10;;;;;;5054160;28;20029;-68
2022/12/24 01:59:36;;;;;;;27.88;20.38;;;21.70;54.10;;;;;;5051520;28;20496;-67
2022/12/24 02:02:02;;;;;;;27.30;19.73;;;21.70;54.10;;;;;;5054708;28;20025;-67
2022/12/24 02:14:00;;;;;;;26.17;19.13;;;21.70;54.20;;;;;;5046397;28;20115;-65
2022/12/24 02:16:35;;;;;;;25.38;19.20;;;21.60;54.10;;;;;;5047050;28;20028;-65
2022/12/24 02:19:20;;;;;;;25.30;19.20;;;21.60;54.10;;;;;;5050727;28;20032;-66
2022/12/24 02:22:09;;;;;;;25.75;18.60;;;21.60;54.20;;;;;;5037933;28;20037;-65
2022/12/24 02:25:03;;;;;;;25.40;19.02;;;21.60;54.10;;;;;;5049628;28;20030;-66
2022/12/24 02:27:48;;;;;;;23.40;17.77;;;21.60;54.20;;;;;;5055727;28;20460;-66
2022/12/24 02:30:27;;;;;;;25.88;19.33;;;21.60;54.10;;;;;;5062421;28;20056;-65
2022/12/24 02:33:07;;;;;;;25.77;18.57;;;21.60;54.10;;;;;;5049003;28;20559;-65
2022/12/24 02:35:50;;;;;;;25.02;18.23;;;21.60;54.20;;;;;;5054997;28;20020;-67
2022/12/24 02:38:19;;;;;;;23.95;17.55;;;21.60;54.20;;;;;;5046026;28;20029;-66
2022/12/24 02:41:10;;;;;;;24.75;18.50;;;21.50;54.10;;;;;;5052632;28;20388;-67
2022/12/24 02:43:39;;;;;;;25.05;18.25;;;21.50;54.20;;;;;;5057057;28;20499;-67
2022/12/24 02:46:27;;;;;;;23.40;17.80;;;21.50;54.20;;;;;;5056450;28;20020;-67
2022/12/24 02:48:53;;;;;;;23.88;17.15;;;21.50;54.20;;;;;;5040930;28;20028;-67
2022/12/24 02:51:23;;;;;;;24.60;18.25;;;21.50;54.20;;;;;;5051071;28;20472;-67
2022/12/24 02:53:49;;;;;;;27.27;18.92;;;21.50;54.20;;;;;;5050750;28;20024;-67
2022/12/24 02:56:59;;;;;;;23.48;17.73;;;21.50;54.20;;;;;;5036636;28;20029;-67
2022/12/24 02:59:51;;;;;;;24.20;16.67;;;21.50;54.20;;;;;;5020611;28;20074;-66
2022/12/24 03:02:54;;;;;;;25.00;17.92;;;21.50;54.20;;;;;;5046318;28;20514;-66
2022/12/24 03:05:44;;;;;;;25.30;17.58;;;21.50;54.20;;;;;;5046973;28;20023;-66
2022/12/24 03:08:42;;;;;;;23.08;17.77;;;21.50;54.20;;;;;;5051153;28;20030;-66
2022/12/24 03:11:14;;;;;;;24.42;18.15;;;21.50;54.20;;;;;;5050318;28;20448;-66
2022/12/24 03:13:41;;;;;;;22.83;17.23;;;21.40;54.70;;;;;;5058312;28;20021;-66
2022/12/24 03:16:10;;;;;;;22.48;17.00;;;21.40;54.20;;;;;;5053262;28;20025;-67
2022/12/24 03:18:39;;;;;;;23.17;16.60;;;21.40;54.20;;;;;;5053989;28;20401;-66
2022/12/24 03:21:27;;;;;;;23.48;16.63;;;21.40;54.20;;;;;;5034319;28;20079;-66
2022/12/24 03:23:53;;;;;;;24.50;16.88;;;21.40;54.30;;;;;;5050532;28;20048;-66
2022/12/24 03:26:19;;;;;;;23.65;17.00;;;21.40;54.30;;;;;;5048785;28;20097;-66
2022/12/24 03:28:46;;;;;;;21.13;15.77;;;21.40;54.30;;;;;;5050036;28;20595;-67
2022/12/24 03:31:13;;;;;;;21.15;15.75;;;21.40;54.30;;;;;;5050143;28;20025;-67
2022/12/24 03:33:39;;;;;;;20.77;15.88;;;21.40;54.30;;;;;;5045875;28;20029;-66
2022/12/24 03:36:06;;;;;;;22.90;16.88;;;21.40;54.30;;;;;;5044400;28;20037;-66
2022/12/24 03:38:32;;;;;;;20.42;15.57;;;21.40;54.30;;;;;;5047944;28;20029;-67
2022/12/24 03:40:57;;;;;;;21.98;15.18;;;21.40;54.30;;;;;;5044610;28;20040;-67
2022/12/24 03:43:23;;;;;;;20.27;15.25;;;21.30;54.30;;;;;;5049529;28;20043;-66
2022/12/24 03:45:49;;;;;;;21.27;15.43;;;21.30;54.40;;;;;;5043586;28;20030;-66
2022/12/24 03:48:14;;;;;;;20.40;15.77;;;21.40;54.40;;;;;;5040884;28;20025;-67
2022/12/24 03:50:40;;;;;;;20.40;14.43;;;21.30;54.40;;;;;;5039106;28;20131;-66
2022/12/24 03:53:06;;;;;;;20.13;15.25;;;21.30;54.40;;;;;;5048896;28;20029;-67
2022/12/24 03:55:31;;;;;;;20.25;15.15;;;21.30;54.40;;;;;;5049693;28;20029;-66
2022/12/24 03:57:57;;;;;;;19.58;14.55;;;21.30;54.40;;;;;;5050461;28;20072;-66
2022/12/24 04:00:22;;;;;;;19.63;14.93;;;21.30;54.40;;;;;;5026458;28;20027;-66
2022/12/24 04:02:48;;;;;;;19.05;13.70;;;21.30;54.40;;;;;;5045272;28;20388;-66
2022/12/24 04:05:16;;;;;;;20.23;14.98;;;21.30;54.40;;;;;;5054462;28;20409;-66
2022/12/24 04:07:42;;;;;;;20.30;14.73;;;21.30;54.50;;;;;;5035604;28;20030;-66
2022/12/24 04:10:08;;;;;;;18.67;13.90;;;21.30;54.40;;;;;;5038945;28;20456;-66
2022/12/24 04:12:34;;;;;;;19.42;14.30;;;21.30;54.50;;;;;;5047425;28;20451;-66
2022/12/24 04:15:00;;;;;;;19.33;14.18;;;21.30;54.50;;;;;;5046430;28;20063;-67
2022/12/24 04:17:25;;;;;;;19.42;14.02;;;21.30;54.50;;;;;;5033039;28;20025;-66
2022/12/24 04:19:51;;;;;;;18.85;14.32;;;21.20;54.40;;;;;;5046766;28;20032;-67
2022/12/24 04:22:17;;;;;;;18.25;13.27;;;21.20;54.50;;;;;;5051464;28;20039;-67
2022/12/24 04:24:43;;;;;;;18.75;14.13;;;21.20;54.50;;;;;;5051032;28;20021;-67
2022/12/24 04:27:08;;;;;;;17.33;13.32;;;21.20;54.50;;;;;;5036249;28;20029;-67
2022/12/24 04:29:34;;;;;;;17.83;12.88;;;21.20;54.50;;;;;;5044322;28;20455;-67
2022/12/24 04:32:00;;;;;;;18.35;13.15;;;21.20;54.50;;;;;;5048098;28;20034;-67
2022/12/24 04:34:26;;;;;;;18.48;13.25;;;21.20;54.60;;;;;;5052760;28;20096;-66
2022/12/24 04:36:52;;;;;;;16.73;13.13;;;21.20;54.60;;;;;;5053834;28;20068;-67
2022/12/24 04:39:17;;;;;;;16.55;12.43;;;21.20;54.60;;;;;;5051218;28;20532;-66
2022/12/24 04:41:43;;;;;;;15.93;12.43;;;21.20;54.60;;;;;;5046687;28;20376;-66
2022/12/24 04:44:09;;;;;;;16.10;11.88;;;21.20;54.60;;;;;;5037608;28;20360;-66
2022/12/24 04:46:35;;;;;;;15.73;12.23;;;21.20;54.60;;;;;;5043865;28;20033;-66
2022/12/24 04:49:00;;;;;;;15.38;12.25;;;21.20;54.60;;;;;;5054442;28;20025;-66
2022/12/24 04:51:27;;;;;;;17.60;13.00;;;21.20;54.60;;;;;;5052431;28;20029;-67
2022/12/24 04:53:54;;;;;;;16.45;12.27;;;21.10;54.60;;;;;;5051274;28;20067;-67
2022/12/24 04:56:22;;;;;;;15.80;11.70;;;21.20;54.60;;;;;;5044517;28;20037;-66
2022/12/24 04:58:49;;;;;;;16.13;12.30;;;21.10;54.60;;;;;;5055191;28;20522;-67
2022/12/24 05:01:23;;;;;;;15.38;11.40;;;21.10;54.60;;;;;;5053207;28;20287;-66
2022/12/24 05:03:49;;;;;;;14.88;11.75;;;21.10;54.70;;;;;;5035178;28;20025;-66
2022/12/24 05:06:17;;;;;;;15.63;11.63;;;21.10;54.70;;;;;;5058452;28;20033;-66
2022/12/24 05:08:43;;;;;;;15.03;11.27;;;21.10;54.70;;;;;;5052781;28;20508;-68
2022/12/24 05:11:13;;;;;;;15.77;12.38;;;21.10;54.70;;;;;;5057533;28;20037;-66
2022/12/24 05:13:39;;;;;;;15.38;11.45;;;21.10;54.70;;;;;;5050546;28;20051;-66
2022/12/24 05:16:05;;;;;;;14.75;10.95;;;21.10;54.70;;;;;;5054782;28;20032;-66
2022/12/24 05:18:30;;;;;;;15.10;11.52;;;21.10;54.70;;;;;;5059261;28;20031;-66
2022/12/24 05:20:56;;;;;;;15.48;11.43;;;21.10;54.70;;;;;;5043949;28;20025;-66
2022/12/24 05:26:23;;;;;;;15.18;11.32;;;21.10;54.80;;;;;;5048179;28;20028;-67
2022/12/24 05:28:53;;;;;;;14.82;10.70;;;21.10;54.80;;;;;;5048234;28;20054;-66
2022/12/24 05:31:21;;;;;;;14.18;10.40;;;21.10;54.80;;;;;;5059034;28;20049;-67
2022/12/24 05:33:47;;;;;;;14.93;10.77;;;21.10;54.80;;;;;;5044929;28;20105;-67
2022/12/24 05:36:14;;;;;;;12.85;10.30;;;21.00;54.70;;;;;;5057053;28;20123;-66
2022/12/24 05:38:39;;;;;;;13.88;10.65;;;21.00;54.70;;;;;;5052418;28;20475;-67
2022/12/24 05:41:06;;;;;;;12.23;9.65;;;21.00;54.70;;;;;;5046000;28;20125;-67
2022/12/24 05:43:31;;;;;;;13.35;10.60;;;21.00;54.70;;;;;;5055472;28;20021;-66
2022/12/24 05:46:05;;;;;;;12.18;9.82;;;21.00;54.70;;;;;;5055483;28;20047;-67
2022/12/24 05:48:31;;;;;;;13.82;10.68;;;21.00;54.70;;;;;;5051402;28;20453;-68
2022/12/24 05:50:56;;;;;;;12.77;9.35;;;21.00;54.70;;;;;;5042565;28;20029;-67
2022/12/24 05:53:22;;;;;;;12.65;10.32;;;21.00;55.30;;;;;;5054252;28;20104;-67
2022/12/24 05:55:48;;;;;;;13.85;10.50;;;21.00;54.80;;;;;;5051729;28;20417;-67
2022/12/24 05:58:15;;;;;;;12.73;9.80;;;21.00;54.80;;;;;;5054340;28;20057;-66
2022/12/24 06:00:40;;;;;;;13.68;10.20;;;21.00;54.80;;;;;;5050979;28;20392;-68
2022/12/24 06:03:06;;;;;;;13.32;10.00;;;21.00;54.80;;;;;;5058677;28;20036;-67
2022/12/24 06:05:32;;;;;;;11.82;9.43;;;21.00;54.80;;;;;;5048581;28;20017;-67
2022/12/24 06:07:57;;;;;;;12.63;9.63;;;21.00;54.80;;;;;;5064049;28;20026;-67
2022/12/24 06:10:23;;;;;;;12.80;9.38;;;21.00;54.80;;;;;;5051381;28;20115;-67
2022/12/24 06:12:48;;;;;;;12.38;9.38;;;21.00;54.80;;;;;;5037199;28;20484;-67
2022/12/24 06:15:14;;;;;;;11.90;9.50;;;21.00;54.80;;;;;;5044515;28;20099;-67
2022/12/24 06:17:40;;;;;;;12.85;9.80;;;21.00;54.80;;;;;;5052716;28;20487;-66
2022/12/24 06:20:06;;;;;;;15.10;10.65;;;21.00;54.80;;;;;;5057233;28;20053;-67
2022/12/24 06:22:32;;;;;;;13.85;9.82;;;21.00;54.80;;;;;;5057728;28;20025;-67
2022/12/24 06:24:58;;;;;;;12.88;9.55;;;21.00;54.80;;;;;;5054980;28;20025;-67
2022/12/24 06:27:23;;;;;;;13.05;9.88;;;21.00;54.80;;;;;;5050071;28;20073;-67
2022/12/24 06:29:49;;;;;;;12.30;9.45;;;20.90;54.80;;;;;;5059078;28;20036;-67
2022/12/24 06:32:15;;;;;;;11.70;9.15;;;20.90;54.80;;;;;;5039741;28;20033;-68
2022/12/24 06:34:40;;;;;;;13.70;9.68;;;20.90;54.80;;;;;;5053397;28;20034;-67
2022/12/24 06:37:06;;;;;;;11.90;9.02;;;20.90;54.80;;;;;;5047583;28;20103;-66
2022/12/24 06:39:32;;;;;;;11.88;9.43;;;20.90;54.80;;;;;;5051245;28;20078;-67
2022/12/24 06:41:57;;;;;;;13.18;10.00;;;20.90;54.80;;;;;;5058253;28;20029;-67
2022/12/24 06:44:23;;;;;;;12.63;9.85;;;20.90;54.80;;;;;;5052634;28;20016;-67
2022/12/24 06:46:48;;;;;;;12.70;9.52;;;20.90;54.80;;;;;;5053220;28;20380;-67
2022/12/24 06:49:14;;;;;;;12.43;9.05;;;20.90;54.80;;;;;;5060976;28;20503;-66
2022/12/24 06:51:40;;;;;;;12.05;9.23;;;20.90;54.80;;;;;;5048388;28;20079;-67
2022/12/24 06:54:06;;;;;;;12.90;8.95;;;20.90;54.80;;;;;;5035630;28;20115;-66
2022/12/24 06:56:31;;;;;;;11.88;9.52;;;20.90;54.80;;;;;;5052441;28;20025;-66
2022/12/24 06:58:57;;;;;;;12.45;9.38;;;20.90;54.80;;;;;;5053438;28;20021;-67
2022/12/24 07:01:23;;;;;;;12.38;8.70;;;20.90;54.80;;;;;;5048926;28;20018;-66
2022/12/24 07:03:49;;;;;;;11.95;9.40;;;20.90;54.80;;;;;;5042562;28;20377;-67
2022/12/24 07:06:22;;;;;;;11.60;8.93;;;20.90;54.80;;;;;;5049314;28;20025;-66
2022/12/24 07:08:48;;;;;;;11.10;8.73;;;20.90;54.80;;;;;;5055645;28;20437;-65
2022/12/24 07:11:14;;;;;;;10.35;7.90;;;20.80;54.70;;;;;;5057244;28;20025;-66
2022/12/24 07:13:40;;;;;;;10.65;8.48;;;20.90;54.80;;;;;;5049446;28;20524;-66
2022/12/24 07:16:05;;;;;;;12.07;8.70;;;20.90;54.80;;;;;;5055406;28;20037;-66
2022/12/24 07:18:31;;;;;;;11.15;8.48;;;20.90;54.80;;;;;;5056534;28;20376;-66
2022/12/24 07:20:57;;;;;;;9.98;7.88;;;20.90;54.80;;;;;;5045741;28;20389;-66
2022/12/24 07:23:23;;;;;;;12.30;8.38;;;20.90;54.80;;;;;;5048744;28;20116;-65
2022/12/24 07:25:48;;;;;;;11.38;9.02;;;20.80;54.80;;;;;;5048972;28;20100;-67
2022/12/24 07:28:14;;;;;;;10.63;8.40;;;20.90;54.80;;;;;;5037842;28;20036;-67
2022/12/24 07:30:39;;;;;;;11.40;8.80;;;20.80;54.70;;;;;;5036799;28;20503;-66
2022/12/24 07:33:05;;;;;;;9.35;7.72;;;20.80;54.70;;;;;;5043935;28;20108;-66
2022/12/24 07:35:31;;;;;;;10.57;8.30;;;20.80;54.70;;;;;;5045171;28;20449;-67
2022/12/24 07:37:56;;;;;;;10.57;8.35;;;20.80;54.70;;;;;;5052628;28;20418;-66
2022/12/24 07:40:22;;;;;;;11.77;8.63;;;20.80;54.70;;;;;;5049896;28;20024;-66
2022/12/24 07:42:47;;;;;;;11.07;8.52;;;20.80;54.70;;;;;;5052545;28;20078;-66
2022/12/24 07:45:13;;;;;;;10.38;7.75;;;20.80;54.70;;;;;;5049776;28;20029;-66
2022/12/24 07:47:38;;;;;;;10.60;8.07;;;20.80;54.70;;;;;;5058211;28;20494;-69
2022/12/24 07:50:05;;;;;;;10.50;8.38;;;20.80;54.70;;;;;;5054551;28;20039;-67
2022/12/24 07:52:31;;;;;;;11.27;8.32;;;20.80;54.70;;;;;;5045442;28;20500;-68
2022/12/24 07:54:56;;;;;;;9.93;8.02;;;20.80;54.70;;;;;;5057469;28;20035;-67
2022/12/24 07:57:22;;;;;;;10.15;7.88;;;20.80;54.80;;;;;;5058133;28;20532;-68
2022/12/24 07:59:47;;;;;;;10.50;8.07;;;20.80;54.80;;;;;;5053060;28;20033;-68
2022/12/24 08:02:13;;;;;;;9.88;7.57;;;20.80;54.80;;;;;;5045385;28;20105;-68
2022/12/24 08:04:39;;;;;;;10.07;7.30;;;20.80;54.80;;;;;;5041062;28;20445;-67
2022/12/24 08:07:05;;;;;;;9.52;7.43;;;20.80;54.80;;;;;;5048010;28;20063;-68
2022/12/24 08:09:33;;;;;;;10.43;7.85;;;20.80;54.90;;;;;;5033725;28;20027;-68
2022/12/24 08:12:01;;;;;;;10.25;7.70;;;20.80;54.90;;;;;;5052727;28;20030;-68
2022/12/24 08:14:27;;;;;;;10.23;7.35;;;20.80;54.90;;;;;;5046489;28;20460;-67
2022/12/24 08:16:53;;;;;;;10.00;7.40;;;20.80;55.00;;;;;;5045938;28;20095;-68
2022/12/24 08:19:19;;;;;;;10.45;7.22;;;20.80;55.00;;;;;;5045307;28;20025;-69
2022/12/24 08:21:44;;;;;;;10.38;7.60;;;20.80;55.00;;;;;;5048899;28;20039;-68
2022/12/24 08:24:10;;;;;;;9.30;7.00;;;20.80;55.10;;;;;;5042526;28;20025;-68
2022/12/24 08:26:35;;;;;;;10.32;7.20;;;20.70;55.00;;;;;;5039565;28;20164;-67
2022/12/24 08:29:02;;;;;;;11.32;6.70;;;20.80;55.10;;;;;;5047827;28;20334;-68
2022/12/24 08:31:28;;;;;;;8.70;6.43;;;20.70;55.10;;;;;;5047901;28;20342;-68
2022/12/24 08:33:54;;;;;;;8.68;6.85;;;20.80;55.10;;;;;;5055279;28;20048;-67
2022/12/24 08:36:20;;;;;;;8.65;6.88;;;20.70;55.10;;;;;;5061135;28;20388;-67
2022/12/24 08:38:45;;;;;;;9.60;6.75;;;20.80;55.10;;;;;;5056667;28;20031;-67
2022/12/24 08:41:11;;;;;;;9.15;7.00;;;20.80;55.40;;;;;;5047797;28;20079;-68
2022/12/24 08:43:36;;;;;;;8.52;6.93;;;20.80;55.20;;;;;;5050908;28;20031;-67
2022/12/24 08:46:04;;;;;;;9.50;6.88;;;20.80;55.20;;;;;;5048703;28;20022;-67
2022/12/24 08:48:31;;;;;;;9.63;7.03;;;20.70;55.10;;;;;;5050106;28;20481;-67
2022/12/24 08:50:57;;;;;;;8.55;6.30;;;20.70;55.10;;;;;;5056955;28;20028;-68
2022/12/24 08:53:23;;;;;;;8.20;6.35;;;20.70;55.10;;;;;;5046123;28;20658;-67
2022/12/24 08:55:48;;;;;;;9.65;7.50;;;20.70;55.10;;;;;;5059071;28;20033;-67
2022/12/24 08:58:14;;;;;;;8.98;7.18;;;20.70;55.10;;;;;;5042172;28;20033;-67
2022/12/24 09:00:40;;;;;;;9.55;6.90;;;20.70;55.10;;;;;;5058464;28;20075;-67
2022/12/24 09:03:05;;;;;;;8.60;6.45;;;20.70;55.20;;;;;;5054414;28;20028;-67
2022/12/24 09:05:31;;;;;;;9.50;6.13;;;20.70;55.20;;;;;;5063225;28;20087;-67
2022/12/24 09:07:57;;;;;;;8.25;6.57;;;20.70;55.20;;;;;;5048438;28;20017;-67
2022/12/24 09:10:23;;;;;;;8.10;6.45;;;20.70;55.20;;;;;;5046175;28;20496;-67
2022/12/24 09:12:50;;;;;;;8.35;6.00;;;20.70;55.20;;;;;;5055486;28;20388;-67
2022/12/24 09:15:16;;;;;;;8.65;6.68;;;20.70;55.20;;;;;;5052631;28;20495;-67
2022/12/24 09:17:41;;;;;;;8.30;6.18;;;20.70;55.20;;;;;;5039401;28;20138;-66
2022/12/24 09:20:08;;;;;;;8.45;6.07;;;20.70;55.20;;;;;;5056077;28;20476;-67
2022/12/24 09:22:35;;;;;;;7.40;5.68;;;20.70;55.20;;;;;;5047764;28;20029;-67
2022/12/24 09:25:03;;;;;;;7.70;5.80;;;20.70;55.20;;;;;;5041520;28;20053;-68
2022/12/24 09:27:30;;;;;;;8.85;6.50;;;20.70;55.20;;;;;;5043494;28;20021;-67
2022/12/24 09:29:55;;;;;;;8.48;6.60;;;20.70;55.20;;;;;;5046018;28;20021;-67
2022/12/24 09:32:21;;;;;;;7.88;6.07;;;20.70;55.10;;;;;;5046717;28;20522;-67
2022/12/24 09:34:47;;;;;;;8.65;6.32;;;20.70;55.20;;;;;;5060925;28;20360;-67
2022/12/24 09:37:12;;;;;;;7.80;6.03;;;20.70;55.20;;;;;;5047064;28;20532;-67
2022/12/24 09:39:38;;;;;;;7.60;6.07;;;20.70;55.10;;;;;;5035899;28;20035;-67
2022/12/24 09:42:04;;;;;;;7.65;5.63;;;20.70;55.10;;;;;;5058813;28;20031;-67
2022/12/24 09:44:41;;;;;;;8.00;6.18;;;20.70;55.10;;;;;;5044935;28;20025;-67
2022/12/24 09:47:23;;;;;;;9.20;6.30;;;20.70;55.10;;;;;;5048461;28;20450;-67
2022/12/24 09:49:53;;;;;;;7.78;5.72;;;20.70;55.20;;;;;;5048018;28;20021;-67
2022/12/24 09:52:42;;;;;;;7.38;5.47;;;20.70;55.10;;;;;;5035530;28;20038;-67
2022/12/24 09:55:32;;;;;;;7.25;5.95;;;20.70;55.20;;;;;;5055809;28;20028;-67
2022/12/24 09:58:01;;;;;;;8.95;5.82;;;20.70;55.20;;;;;;5052151;28;20090;-68
2022/12/24 10:00:29;;;;;;;8.63;6.32;;;20.60;55.10;;;;;;5050566;28;20032;-67
2022/12/24 10:02:56;;;;;;;7.88;5.88;;;20.70;55.10;;;;;;5046154;28;20488;-67
2022/12/24 10:05:56;;;;;;;9.43;5.93;;;20.60;55.10;;;;;;5059656;28;20112;-68
2022/12/24 10:08:32;;;;;;;8.45;6.50;;;20.70;55.10;;;;;;5060613;28;20056;-67
2022/12/24 10:11:14;;;;;;;9.18;5.95;;;20.60;55.10;;;;;;5062701;28;20024;-68
2022/12/24 10:14:05;;;;;;;8.88;5.80;;;20.70;55.10;;;;;;5041161;28;20030;-68
2022/12/24 10:16:37;;;;;;;8.25;6.00;;;20.70;55.10;;;;;;5044132;28;20032;-67
2022/12/24 10:19:22;;;;;;;8.50;6.45;;;20.60;55.00;;;;;;5057939;28;20261;-68
2022/12/24 10:22:20;;;;;;;8.68;6.28;;;20.70;55.10;;;;;;5056379;28;20154;-68
2022/12/24 10:24:48;;;;;;;8.02;5.82;;;20.60;55.00;;;;;;5052982;28;20068;-68
2022/12/24 10:27:17;;;;;;;8.23;6.35;;;20.60;55.00;;;;;;5052656;28;20054;-67
2022/12/24 10:29:46;;;;;;;8.77;6.15;;;20.60;55.00;;;;;;5048478;28;20104;-68
2022/12/24 10:32:21;;;;;;;8.77;6.20;;;20.70;55.10;;;;;;5056924;28;20471;-67
2022/12/24 10:35:13;;;;;;;9.25;5.93;;;20.70;55.10;;;;;;5053289;28;20117;-66
2022/12/24 10:37:40;;;;;;;10.27;7.25;;;20.70;55.10;;;;;;5009884;28;20033;-67
2022/12/24 10:40:11;;;;;;;9.68;6.68;;;20.60;55.40;;;;;;5048055;28;20484;-68
2022/12/24 10:42:43;;;;;;;11.57;8.40;;;20.70;55.60;;;;;;5051168;28;20472;-68
2022/12/24 10:45:16;;;;;;;11.75;8.60;;;20.80;56.00;;;;;;5047866;28;20370;-68
2022/12/24 10:47:44;;;;;;;11.98;8.13;;;20.80;55.70;;;;;;5045992;28;20086;-68
2022/12/24 10:50:18;;;;;;;10.95;7.93;;;20.90;55.60;;;;;;5048704;28;20032;-67
2022/12/24 10:52:44;;;;;;;10.60;7.40;;;21.00;55.50;;;;;;5047434;28;20031;-67
2022/12/24 10:55:30;;;;;;;13.45;9.25;;;21.00;55.50;;;;;;5047027;28;20206;-67
2022/12/24 10:58:00;;;;;;;13.00;9.18;;;21.00;55.20;;;;;;5038535;28;20045;-67
2022/12/24 11:00:27;;;;;;;11.13;8.13;;;21.10;55.20;;;;;;5047490;28;20033;-67
2022/12/24 11:03:28;;;;;;;11.70;8.45;;;21.10;55.20;;;;;;5049448;28;20024;-68
2022/12/24 11:06:04;;;;;;;10.32;7.38;;;21.10;55.10;;;;;;5041930;28;20461;-67
2022/12/24 11:08:31;;;;;;;9.27;7.00;;;21.10;55.20;;;;;;5050950;28;20051;-68
2022/12/24 11:11:14;;;;;;;10.75;7.20;;;21.10;55.00;;;;;;5050271;28;20488;-67
2022/12/24 11:13:54;;;;;;;10.95;8.00;;;21.10;55.00;;;;;;5056730;28;20020;-68
2022/12/24 11:16:34;;;;;;;10.80;8.15;;;21.20;54.90;;;;;;5042211;28;20072;-68
2022/12/24 11:19:17;;;;;;;9.70;7.57;;;21.20;54.80;;;;;;5045474;28;20437;-68
2022/12/24 11:21:43;;;;;;;12.48;7.80;;;21.20;54.80;;;;;;5046964;28;20029;-67
2022/12/24 11:24:24;;;;;;;10.75;8.27;;;21.20;54.70;;;;;;5046358;28;20499;-67
2022/12/24 11:26:50;;;;;;;9.93;7.45;;;21.20;54.70;;;;;;5049582;28;20017;-67
2022/12/24 11:29:19;;;;;;;10.15;7.22;;;21.20;54.60;;;;;;5036538;28;20039;-68
2022/12/24 11:31:46;;;;;;;10.07;7.28;;;21.30;54.70;;;;;;5045640;28;20416;-67
2022/12/24 11:34:23;;;;;;;10.82;7.80;;;21.30;54.70;;;;;;5036826;28;20028;-67
2022/12/24 11:36:53;;;;;;;9.27;6.95;;;21.30;54.70;;;;;;5046076;28;20025;-67
2022/12/24 11:39:24;;;;;;;10.05;7.15;;;21.30;54.60;;;;;;5046390;28;20507;-67
2022/12/24 11:41:52;;;;;;;9.70;7.10;;;21.20;54.50;;;;;;5050340;28;20135;-67
2022/12/24 11:44:25;;;;;;;10.10;7.40;;;21.30;54.60;;;;;;5055919;28;20145;-67
2022/12/24 11:46:55;;;;;;;10.02;7.03;;;21.30;54.60;;;;;;5059961;28;20025;-67
2022/12/24 11:49:31;;;;;;;9.40;6.82;;;21.30;54.60;;;;;;5050624;28;20407;-68
2022/12/24 11:52:09;;;;;;;10.60;7.93;;;21.30;54.60;;;;;;5055328;28;20396;-67
2022/12/24 11:54:51;;;;;;;13.10;8.10;;;21.30;54.70;;;;;;5049169;28;20033;-69
2022/12/24 11:57:22;;;;;;;11.38;8.05;;;21.30;54.70;;;;;;5052940;28;20032;-68
2022/12/24 11:59:48;;;;;;;12.43;8.40;;;21.30;54.70;;;;;;5041193;28;20557;-68
2022/12/24 12:02:23;;;;;;;13.15;9.15;;;21.30;54.70;;;;;;5051329;28;20366;-67
2022/12/24 12:04:53;;;;;;;13.07;8.70;;;21.30;54.70;;;;;;5052360;28;20468;-68
2022/12/24 12:07:27;;;;;;;13.88;9.95;;;21.30;54.70;;;;;;5043586;28;20507;-68
2022/12/24 12:10:01;;;;;;;11.43;8.68;;;21.30;54.70;;;;;;5052961;28;20040;-69
2022/12/24 12:12:33;;;;;;;12.25;8.73;;;21.30;54.70;;;;;;5054079;28;20477;-67
2022/12/24 12:15:03;;;;;;;12.93;9.40;;;21.30;54.70;;;;;;5053597;28;20029;-68
2022/12/24 12:17:50;;;;;;;13.77;9.15;;;21.30;54.70;;;;;;5047581;28;20064;-68
2022/12/24 12:20:20;;;;;;;13.00;9.38;;;21.30;54.70;;;;;;5050591;28;20045;-68
2022/12/24 12:23:01;;;;;;;14.05;10.13;;;21.30;54.70;;;;;;5043470;28;20045;-68
2022/12/24 12:25:56;;;;;;;15.02;10.18;;;21.30;54.70;;;;;;5052173;28;20500;-68
2022/12/24 12:28:30;;;;;;;13.80;9.70;;;21.30;54.70;;;;;;5044291;28;20523;-69
2022/12/24 12:31:06;;;;;;;13.18;9.60;;;21.30;54.70;;;;;;5063369;28;20472;-68
2022/12/24 12:33:41;;;;;;;16.10;10.95;;;21.30;54.80;;;;;;5043237;28;20025;-69
2022/12/24 12:36:09;;;;;;;15.40;10.15;;;21.30;54.70;;;;;;5038078;28;20097;-68
2022/12/24 12:38:35;;;;;;;14.02;9.88;;;21.30;54.80;;;;;;5051804;28;20345;-69
2022/12/24 12:41:27;;;;;;;15.27;9.60;;;21.30;54.90;;;;;;5046473;28;20463;-68
2022/12/24 12:44:18;;;;;;;15.05;10.05;;;21.30;54.90;;;;;;5039866;28;20540;-68
2022/12/24 12:47:03;;;;;;;14.98;10.23;;;21.40;54.80;;;;;;5057821;28;20020;-68
2022/12/24 12:50:08;;;;;;;14.85;9.32;;;21.40;54.80;;;;;;5052961;28;20037;-68
2022/12/24 12:52:43;;;;;;;13.82;9.23;;;21.40;54.70;;;;;;5055887;28;20082;-68
2022/12/24 12:55:33;;;;;;;13.52;9.38;;;21.50;54.80;;;;;;5051003;28;20546;-68
2022/12/24 12:58:20;;;;;;;12.27;8.95;;;21.50;54.80;;;;;;5054063;28;20427;-68
2022/12/24 13:00:50;;;;;;;12.82;9.10;;;21.50;54.70;;;;;;5059638;28;20033;-67
2022/12/24 13:03:57;;;;;;;13.15;9.18;;;21.50;54.70;;;;;;5054694;28;20036;-68
2022/12/24 13:06:23;;;;;;;13.45;9.23;;;21.50;54.60;;;;;;5050541;28;20017;-68